sensor_id;sensor_type;location;lat;lon;timestamp;temperature;humidity
4755;DHT22;2391;47.212;7.542;2023-05-27T00:00:03;22.20;80.50
4755;DHT22;2391;47.212;7.542;2023-05-27T00:02:29;22.20;80.60
4755;DHT22;2391;47.212;7.542;2023-05-27T00:04:55;22.20;80.90
4755;DHT22;2391;47.212;7.542;2023-05-27T00:07:20;22.20;80.80
4755;DHT22;2391;47.212;7.542;2023-05-27T00:09:46;22.10;80.90
4755;DHT22;2391;47.212;7.542;2023-05-27T00:12:12;22.10;80.90
4755;DHT22;2391;47.212;7.542;2023-05-27T00:14:38;22.00;80.70
4755;DHT22;2391;47.212;7.542;2023-05-27T00:17:03;21.90;81.00
4755;DHT22;2391;47.212;7.542;2023-05-27T00:19:30;21.90;81.20
4755;DHT22;2391;47.212;7.542;2023-05-27T00:21:56;21.90;81.30
4755;DHT22;2391;47.212;7.542;2023-05-27T00:24:22;21.90;81.50
4755;DHT22;2391;47.212;7.542;2023-05-27T00:26:48;21.90;81.50
4755;DHT22;2391;47.212;7.542;2023-05-27T00:29:16;21.90;81.40
4755;DHT22;2391;47.212;7.542;2023-05-27T00:31:42;21.90;81.60
4755;DHT22;2391;47.212;7.542;2023-05-27T00:34:07;21.80;81.40
4755;DHT22;2391;47.212;7.542;2023-05-27T00:36:33;21.80;81.50
4755;DHT22;2391;47.212;7.542;2023-05-27T00:39:00;21.80;81.60
4755;DHT22;2391;47.212;7.542;2023-05-27T00:41:26;21.80;81.60
4755;DHT22;2391;47.212;7.542;2023-05-27T00:43:52;21.80;81.80
4755;DHT22;2391;47.212;7.542;2023-05-27T00:46:18;21.70;81.90
4755;DHT22;2391;47.212;7.542;2023-05-27T00:48:45;21.70;81.80
4755;DHT22;2391;47.212;7.542;2023-05-27T00:51:11;21.60;81.90
4755;DHT22;2391;47.212;7.542;2023-05-27T00:53:39;21.60;82.00
4755;DHT22;2391;47.212;7.542;2023-05-27T00:56:10;21.60;82.00
4755;DHT22;2391;47.212;7.542;2023-05-27T00:58:36;21.60;82.10
4755;DHT22;2391;47.212;7.542;2023-05-27T01:01:03;21.50;82.10
4755;DHT22;2391;47.212;7.542;2023-05-27T01:03:30;21.60;82.30
4755;DHT22;2391;47.212;7.542;2023-05-27T01:06:08;21.50;82.20
4755;DHT22;2391;47.212;7.542;2023-05-27T01:08:37;21.50;82.10
4755;DHT22;2391;47.212;7.542;2023-05-27T01:11:04;21.50;82.10
4755;DHT22;2391;47.212;7.542;2023-05-27T01:13:52;21.50;82.20
4755;DHT22;2391;47.212;7.542;2023-05-27T01:16:19;21.50;82.50
4755;DHT22;2391;47.212;7.542;2023-05-27T01:18:47;21.50;82.70
4755;DHT22;2391;47.212;7.542;2023-05-27T01:21:15;21.40;82.80
4755;DHT22;2391;47.212;7.542;2023-05-27T01:23:48;21.40;82.80
4755;DHT22;2391;47.212;7.542;2023-05-27T01:26:14;21.40;83.00
4755;DHT22;2391;47.212;7.542;2023-05-27T01:28:40;21.40;82.90
4755;DHT22;2391;47.212;7.542;2023-05-27T01:31:31;21.40;82.90
4755;DHT22;2391;47.212;7.542;2023-05-27T01:34:03;21.30;82.90
4755;DHT22;2391;47.212;7.542;2023-05-27T01:36:33;21.30;82.90
4755;DHT22;2391;47.212;7.542;2023-05-27T01:38:59;21.30;83.10
4755;DHT22;2391;47.212;7.542;2023-05-27T01:41:25;21.20;83.00
4755;DHT22;2391;47.212;7.542;2023-05-27T01:43:53;21.20;83.30
4755;DHT22;2391;47.212;7.542;2023-05-27T01:46:19;21.20;83.20
4755;DHT22;2391;47.212;7.542;2023-05-27T01:48:45;21.10;83.20
4755;DHT22;2391;47.212;7.542;2023-05-27T01:51:11;21.00;83.10
4755;DHT22;2391;47.212;7.542;2023-05-27T01:53:36;21.00;83.30
4755;DHT22;2391;47.212;7.542;2023-05-27T01:56:02;20.90;83.30
4755;DHT22;2391;47.212;7.542;2023-05-27T01:58:28;20.90;83.40
4755;DHT22;2391;47.212;7.542;2023-05-27T02:00:53;20.90;83.20
4755;DHT22;2391;47.212;7.542;2023-05-27T02:03:19;20.80;83.10
4755;DHT22;2391;47.212;7.542;2023-05-27T02:05:45;20.80;83.20
4755;DHT22;2391;47.212;7.542;2023-05-27T02:08:11;20.80;82.80
4755;DHT22;2391;47.212;7.542;2023-05-27T02:10:36;20.70;82.80
4755;DHT22;2391;47.212;7.542;2023-05-27T02:13:02;20.70;82.70
4755;DHT22;2391;47.212;7.542;2023-05-27T02:15:28;20.60;82.50
4755;DHT22;2391;47.212;7.542;2023-05-27T02:17:54;20.60;82.60
4755;DHT22;2391;47.212;7.542;2023-05-27T02:20:22;20.60;82.70
4755;DHT22;2391;47.212;7.542;2023-05-27T02:22:50;20.60;82.60
4755;DHT22;2391;47.212;7.542;2023-05-27T02:25:16;20.50;82.70
4755;DHT22;2391;47.212;7.542;2023-05-27T02:27:42;20.50;82.40
4755;DHT22;2391;47.212;7.542;2023-05-27T02:30:10;20.50;82.50
4755;DHT22;2391;47.212;7.542;2023-05-27T02:32:36;20.50;82.40
4755;DHT22;2391;47.212;7.542;2023-05-27T02:35:02;20.50;82.40
4755;DHT22;2391;47.212;7.542;2023-05-27T02:37:28;20.40;82.40
4755;DHT22;2391;47.212;7.542;2023-05-27T02:39:54;20.40;82.40
4755;DHT22;2391;47.212;7.542;2023-05-27T02:42:20;20.40;82.30
4755;DHT22;2391;47.212;7.542;2023-05-27T02:44:46;20.40;82.30
4755;DHT22;2391;47.212;7.542;2023-05-27T02:47:12;20.40;82.50
4755;DHT22;2391;47.212;7.542;2023-05-27T02:49:37;20.40;82.30
4755;DHT22;2391;47.212;7.542;2023-05-27T02:52:03;20.40;82.20
4755;DHT22;2391;47.212;7.542;2023-05-27T02:54:29;20.30;81.80
4755;DHT22;2391;47.212;7.542;2023-05-27T02:56:55;20.30;81.80
4755;DHT22;2391;47.212;7.542;2023-05-27T02:59:21;20.30;81.80
4755;DHT22;2391;47.212;7.542;2023-05-27T03:01:47;20.30;82.00
4755;DHT22;2391;47.212;7.542;2023-05-27T03:04:12;20.20;82.20
4755;DHT22;2391;47.212;7.542;2023-05-27T03:06:38;20.20;82.20
4755;DHT22;2391;47.212;7.542;2023-05-27T03:09:04;20.10;82.20
4755;DHT22;2391;47.212;7.542;2023-05-27T03:11:30;20.10;82.00
4755;DHT22;2391;47.212;7.542;2023-05-27T03:13:55;20.10;82.00
4755;DHT22;2391;47.212;7.542;2023-05-27T03:16:21;20.10;82.00
4755;DHT22;2391;47.212;7.542;2023-05-27T03:18:48;20.10;82.00
4755;DHT22;2391;47.212;7.542;2023-05-27T03:21:14;20.10;82.10
4755;DHT22;2391;47.212;7.542;2023-05-27T03:23:40;20.10;81.90
4755;DHT22;2391;47.212;7.542;2023-05-27T03:26:05;20.10;82.00
4755;DHT22;2391;47.212;7.542;2023-05-27T03:28:31;20.10;82.00
4755;DHT22;2391;47.212;7.542;2023-05-27T03:30:57;20.00;82.00
4755;DHT22;2391;47.212;7.542;2023-05-27T03:33:23;20.10;82.10
4755;DHT22;2391;47.212;7.542;2023-05-27T03:35:49;20.00;82.00
4755;DHT22;2391;47.212;7.542;2023-05-27T03:38:15;20.00;82.00
4755;DHT22;2391;47.212;7.542;2023-05-27T03:40:41;20.00;81.80
4755;DHT22;2391;47.212;7.542;2023-05-27T03:43:06;20.00;82.00
4755;DHT22;2391;47.212;7.542;2023-05-27T03:45:32;20.00;82.30
4755;DHT22;2391;47.212;7.542;2023-05-27T03:47:58;20.00;82.30
4755;DHT22;2391;47.212;7.542;2023-05-27T03:50:24;20.00;82.30
4755;DHT22;2391;47.212;7.542;2023-05-27T03:52:49;20.00;82.30
4755;DHT22;2391;47.212;7.542;2023-05-27T03:55:16;19.90;82.10
4755;DHT22;2391;47.212;7.542;2023-05-27T03:57:46;20.00;82.10
4755;DHT22;2391;47.212;7.542;2023-05-27T04:00:12;19.90;82.40
4755;DHT22;2391;47.212;7.542;2023-05-27T04:02:39;19.90;82.20
4755;DHT22;2391;47.212;7.542;2023-05-27T04:05:05;19.90;82.50
4755;DHT22;2391;47.212;7.542;2023-05-27T04:07:31;19.90;82.60
4755;DHT22;2391;47.212;7.542;2023-05-27T04:09:57;19.90;82.50
4755;DHT22;2391;47.212;7.542;2023-05-27T04:12:24;19.80;82.70
4755;DHT22;2391;47.212;7.542;2023-05-27T04:14:50;19.80;82.80
4755;DHT22;2391;47.212;7.542;2023-05-27T04:17:16;19.80;82.70
4755;DHT22;2391;47.212;7.542;2023-05-27T04:19:43;19.70;82.30
4755;DHT22;2391;47.212;7.542;2023-05-27T04:22:09;19.70;82.50
4755;DHT22;2391;47.212;7.542;2023-05-27T04:24:35;19.70;82.60
4755;DHT22;2391;47.212;7.542;2023-05-27T04:27:00;19.70;82.60
4755;DHT22;2391;47.212;7.542;2023-05-27T04:29:29;19.70;82.60
4755;DHT22;2391;47.212;7.542;2023-05-27T04:31:56;19.60;82.70
4755;DHT22;2391;47.212;7.542;2023-05-27T04:34:22;19.70;82.80
4755;DHT22;2391;47.212;7.542;2023-05-27T04:36:48;19.60;82.60
4755;DHT22;2391;47.212;7.542;2023-05-27T04:39:17;19.70;82.70
4755;DHT22;2391;47.212;7.542;2023-05-27T04:41:43;19.70;82.60
4755;DHT22;2391;47.212;7.542;2023-05-27T04:44:11;19.60;82.40
4755;DHT22;2391;47.212;7.542;2023-05-27T04:46:37;19.60;82.70
4755;DHT22;2391;47.212;7.542;2023-05-27T04:49:07;19.60;83.00
4755;DHT22;2391;47.212;7.542;2023-05-27T04:51:33;19.60;82.60
4755;DHT22;2391;47.212;7.542;2023-05-27T04:54:01;19.60;82.80
4755;DHT22;2391;47.212;7.542;2023-05-27T04:56:27;19.60;82.90
4755;DHT22;2391;47.212;7.542;2023-05-27T04:58:53;19.60;82.90
4755;DHT22;2391;47.212;7.542;2023-05-27T05:01:20;19.60;82.90
4755;DHT22;2391;47.212;7.542;2023-05-27T05:03:47;19.60;83.60
4755;DHT22;2391;47.212;7.542;2023-05-27T05:06:20;19.60;82.90
4755;DHT22;2391;47.212;7.542;2023-05-27T05:08:48;19.60;82.60
4755;DHT22;2391;47.212;7.542;2023-05-27T05:11:14;19.60;82.80
4755;DHT22;2391;47.212;7.542;2023-05-27T05:13:40;19.60;82.80
4755;DHT22;2391;47.212;7.542;2023-05-27T05:16:06;19.60;82.60
4755;DHT22;2391;47.212;7.542;2023-05-27T05:18:32;19.60;82.60
4755;DHT22;2391;47.212;7.542;2023-05-27T05:20:57;19.60;82.90
4755;DHT22;2391;47.212;7.542;2023-05-27T05:23:23;19.60;82.90
4755;DHT22;2391;47.212;7.542;2023-05-27T05:25:52;19.60;82.70
4755;DHT22;2391;47.212;7.542;2023-05-27T05:28:20;19.60;83.30
4755;DHT22;2391;47.212;7.542;2023-05-27T05:30:46;19.60;83.60
4755;DHT22;2391;47.212;7.542;2023-05-27T05:33:12;19.60;83.40
4755;DHT22;2391;47.212;7.542;2023-05-27T05:35:37;19.60;83.40
4755;DHT22;2391;47.212;7.542;2023-05-27T05:38:03;19.60;83.50
4755;DHT22;2391;47.212;7.542;2023-05-27T05:40:29;19.60;83.60
4755;DHT22;2391;47.212;7.542;2023-05-27T05:42:55;19.60;83.70
4755;DHT22;2391;47.212;7.542;2023-05-27T05:45:20;19.70;83.40
4755;DHT22;2391;47.212;7.542;2023-05-27T05:47:46;19.70;83.50
4755;DHT22;2391;47.212;7.542;2023-05-27T05:50:12;19.60;83.90
4755;DHT22;2391;47.212;7.542;2023-05-27T05:52:38;19.60;83.90
4755;DHT22;2391;47.212;7.542;2023-05-27T05:55:05;19.60;83.80
4755;DHT22;2391;47.212;7.542;2023-05-27T05:57:31;19.60;83.80
4755;DHT22;2391;47.212;7.542;2023-05-27T05:59:57;19.60;83.30
4755;DHT22;2391;47.212;7.542;2023-05-27T06:02:23;19.70;84.20
4755;DHT22;2391;47.212;7.542;2023-05-27T06:04:50;19.80;84.30
4755;DHT22;2391;47.212;7.542;2023-05-27T06:07:16;19.90;83.60
4755;DHT22;2391;47.212;7.542;2023-05-27T06:09:42;20.00;83.70
4755;DHT22;2391;47.212;7.542;2023-05-27T06:12:08;20.10;83.20
4755;DHT22;2391;47.212;7.542;2023-05-27T06:14:34;20.30;83.30
4755;DHT22;2391;47.212;7.542;2023-05-27T06:17:00;20.40;82.40
4755;DHT22;2391;47.212;7.542;2023-05-27T06:19:26;20.60;82.50
4755;DHT22;2391;47.212;7.542;2023-05-27T06:21:51;20.80;81.80
4755;DHT22;2391;47.212;7.542;2023-05-27T06:24:17;21.00;81.30
4755;DHT22;2391;47.212;7.542;2023-05-27T06:26:44;21.20;82.30
4755;DHT22;2391;47.212;7.542;2023-05-27T06:29:10;21.30;81.50
4755;DHT22;2391;47.212;7.542;2023-05-27T06:31:36;21.50;80.60
4755;DHT22;2391;47.212;7.542;2023-05-27T06:34:02;21.70;80.00
4755;DHT22;2391;47.212;7.542;2023-05-27T06:36:28;21.90;79.70
4755;DHT22;2391;47.212;7.542;2023-05-27T06:38:53;22.00;79.00
4755;DHT22;2391;47.212;7.542;2023-05-27T06:41:19;22.10;79.30
4755;DHT22;2391;47.212;7.542;2023-05-27T06:43:45;22.20;78.60
4755;DHT22;2391;47.212;7.542;2023-05-27T06:46:11;22.30;79.20
4755;DHT22;2391;47.212;7.542;2023-05-27T06:48:36;22.40;78.40
4755;DHT22;2391;47.212;7.542;2023-05-27T06:51:02;22.30;78.90
4755;DHT22;2391;47.212;7.542;2023-05-27T06:53:28;22.40;79.00
4755;DHT22;2391;47.212;7.542;2023-05-27T06:55:55;22.40;78.70
4755;DHT22;2391;47.212;7.542;2023-05-27T06:58:21;22.40;78.80
4755;DHT22;2391;47.212;7.542;2023-05-27T07:00:47;22.40;78.50
4755;DHT22;2391;47.212;7.542;2023-05-27T07:03:14;22.60;78.50
4755;DHT22;2391;47.212;7.542;2023-05-27T07:05:40;22.70;78.30
4755;DHT22;2391;47.212;7.542;2023-05-27T07:08:06;22.90;78.10
4755;DHT22;2391;47.212;7.542;2023-05-27T07:10:32;23.00;78.00
4755;DHT22;2391;47.212;7.542;2023-05-27T07:12:58;23.20;77.80
4755;DHT22;2391;47.212;7.542;2023-05-27T07:15:25;23.30;77.90
4755;DHT22;2391;47.212;7.542;2023-05-27T07:17:51;23.40;76.50
4755;DHT22;2391;47.212;7.542;2023-05-27T07:20:17;23.30;76.40
4755;DHT22;2391;47.212;7.542;2023-05-27T07:22:43;23.30;76.40
4755;DHT22;2391;47.212;7.542;2023-05-27T07:25:09;23.30;76.20
4755;DHT22;2391;47.212;7.542;2023-05-27T07:27:35;23.20;76.50
4755;DHT22;2391;47.212;7.542;2023-05-27T07:30:01;23.30;76.90
4755;DHT22;2391;47.212;7.542;2023-05-27T07:32:27;23.40;77.00
4755;DHT22;2391;47.212;7.542;2023-05-27T07:34:53;23.50;76.90
4755;DHT22;2391;47.212;7.542;2023-05-27T07:37:21;23.60;76.60
4755;DHT22;2391;47.212;7.542;2023-05-27T07:39:49;23.70;76.50
4755;DHT22;2391;47.212;7.542;2023-05-27T07:42:17;23.60;75.50
4755;DHT22;2391;47.212;7.542;2023-05-27T07:44:42;23.50;76.70
4755;DHT22;2391;47.212;7.542;2023-05-27T07:47:08;23.50;76.00
4755;DHT22;2391;47.212;7.542;2023-05-27T07:49:34;23.50;77.20
4755;DHT22;2391;47.212;7.542;2023-05-27T07:52:00;23.60;77.70
4755;DHT22;2391;47.212;7.542;2023-05-27T07:54:25;23.70;76.20
4755;DHT22;2391;47.212;7.542;2023-05-27T07:56:52;23.60;76.20
4755;DHT22;2391;47.212;7.542;2023-05-27T07:59:18;23.50;76.20
4755;DHT22;2391;47.212;7.542;2023-05-27T08:01:44;23.50;76.40
4755;DHT22;2391;47.212;7.542;2023-05-27T08:04:10;23.50;76.90
4755;DHT22;2391;47.212;7.542;2023-05-27T08:06:36;23.50;77.70
4755;DHT22;2391;47.212;7.542;2023-05-27T08:09:02;23.50;77.30
4755;DHT22;2391;47.212;7.542;2023-05-27T08:11:29;23.50;78.30
4755;DHT22;2391;47.212;7.542;2023-05-27T08:13:56;23.50;77.30
4755;DHT22;2391;47.212;7.542;2023-05-27T08:16:22;23.60;78.50
4755;DHT22;2391;47.212;7.542;2023-05-27T08:18:48;23.60;77.90
4755;DHT22;2391;47.212;7.542;2023-05-27T08:21:15;23.70;77.50
4755;DHT22;2391;47.212;7.542;2023-05-27T08:23:40;23.80;77.70
4755;DHT22;2391;47.212;7.542;2023-05-27T08:26:06;23.90;78.60
4755;DHT22;2391;47.212;7.542;2023-05-27T08:28:32;23.90;77.50
4755;DHT22;2391;47.212;7.542;2023-05-27T08:30:59;24.00;77.50
4755;DHT22;2391;47.212;7.542;2023-05-27T08:33:31;24.10;76.80
4755;DHT22;2391;47.212;7.542;2023-05-27T08:35:57;24.10;76.90
4755;DHT22;2391;47.212;7.542;2023-05-27T08:38:23;24.10;77.10
4755;DHT22;2391;47.212;7.542;2023-05-27T08:40:48;24.10;77.40
4755;DHT22;2391;47.212;7.542;2023-05-27T08:43:15;24.10;76.70
4755;DHT22;2391;47.212;7.542;2023-05-27T08:45:41;24.10;76.90
4755;DHT22;2391;47.212;7.542;2023-05-27T08:48:09;24.10;78.10
4755;DHT22;2391;47.212;7.542;2023-05-27T08:50:36;24.10;78.50
4755;DHT22;2391;47.212;7.542;2023-05-27T08:53:03;24.20;78.20
4755;DHT22;2391;47.212;7.542;2023-05-27T08:55:30;24.30;79.30
4755;DHT22;2391;47.212;7.542;2023-05-27T08:57:58;24.40;78.00
4755;DHT22;2391;47.212;7.542;2023-05-27T09:00:27;24.50;78.30
4755;DHT22;2391;47.212;7.542;2023-05-27T09:02:53;24.70;77.40
4755;DHT22;2391;47.212;7.542;2023-05-27T09:05:23;24.70;77.30
4755;DHT22;2391;47.212;7.542;2023-05-27T09:07:49;24.70;76.90
4755;DHT22;2391;47.212;7.542;2023-05-27T09:10:15;24.70;76.00
4755;DHT22;2391;47.212;7.542;2023-05-27T09:12:45;24.70;77.50
4755;DHT22;2391;47.212;7.542;2023-05-27T09:15:12;24.70;77.40
4755;DHT22;2391;47.212;7.542;2023-05-27T09:17:42;24.70;77.40
4755;DHT22;2391;47.212;7.542;2023-05-27T09:20:08;24.70;77.50
4755;DHT22;2391;47.212;7.542;2023-05-27T09:22:36;24.70;77.90
4755;DHT22;2391;47.212;7.542;2023-05-27T09:25:02;24.80;77.40
4755;DHT22;2391;47.212;7.542;2023-05-27T09:27:30;24.70;77.50
4755;DHT22;2391;47.212;7.542;2023-05-27T09:29:57;24.60;77.00
4755;DHT22;2391;47.212;7.542;2023-05-27T09:32:30;24.70;78.50
4755;DHT22;2391;47.212;7.542;2023-05-27T09:34:57;24.70;78.30
4755;DHT22;2391;47.212;7.542;2023-05-27T09:37:28;24.70;77.80
4755;DHT22;2391;47.212;7.542;2023-05-27T09:45:16;25.00;77.20
4755;DHT22;2391;47.212;7.542;2023-05-27T09:47:43;25.00;76.00
4755;DHT22;2391;47.212;7.542;2023-05-27T09:50:12;25.00;76.50
4755;DHT22;2391;47.212;7.542;2023-05-27T09:52:39;25.00;75.80
4755;DHT22;2391;47.212;7.542;2023-05-27T09:55:08;24.90;75.90
4755;DHT22;2391;47.212;7.542;2023-05-27T09:57:35;24.80;76.00
4755;DHT22;2391;47.212;7.542;2023-05-27T10:00:03;24.70;76.50
4755;DHT22;2391;47.212;7.542;2023-05-27T10:02:42;24.80;76.40
4755;DHT22;2391;47.212;7.542;2023-05-27T10:05:10;24.80;77.00
4755;DHT22;2391;47.212;7.542;2023-05-27T10:07:38;24.80;76.10
4755;DHT22;2391;47.212;7.542;2023-05-27T10:10:07;24.90;76.40
4755;DHT22;2391;47.212;7.542;2023-05-27T10:12:35;24.90;75.10
4755;DHT22;2391;47.212;7.542;2023-05-27T10:15:01;24.90;76.10
4755;DHT22;2391;47.212;7.542;2023-05-27T10:17:27;24.90;75.40
4755;DHT22;2391;47.212;7.542;2023-05-27T10:19:57;24.90;76.30
4755;DHT22;2391;47.212;7.542;2023-05-27T10:22:23;24.90;76.60
4755;DHT22;2391;47.212;7.542;2023-05-27T10:24:49;25.00;75.60
4755;DHT22;2391;47.212;7.542;2023-05-27T10:27:15;25.00;74.70
4755;DHT22;2391;47.212;7.542;2023-05-27T10:29:41;25.00;76.20
4755;DHT22;2391;47.212;7.542;2023-05-27T10:32:07;24.90;74.70
4755;DHT22;2391;47.212;7.542;2023-05-27T10:34:37;24.90;73.70
4755;DHT22;2391;47.212;7.542;2023-05-27T10:37:03;24.90;72.30
4755;DHT22;2391;47.212;7.542;2023-05-27T10:39:29;24.80;74.50
4755;DHT22;2391;47.212;7.542;2023-05-27T10:41:56;24.70;75.20
4755;DHT22;2391;47.212;7.542;2023-05-27T10:44:31;24.70;74.50
4755;DHT22;2391;47.212;7.542;2023-05-27T10:47:11;24.70;74.60
4755;DHT22;2391;47.212;7.542;2023-05-27T10:49:40;24.80;74.50
4755;DHT22;2391;47.212;7.542;2023-05-27T10:52:08;24.80;74.40
4755;DHT22;2391;47.212;7.542;2023-05-27T10:54:36;24.80;75.10
4755;DHT22;2391;47.212;7.542;2023-05-27T10:57:03;24.80;74.10
4755;DHT22;2391;47.212;7.542;2023-05-27T10:59:37;24.90;74.60
4755;DHT22;2391;47.212;7.542;2023-05-27T11:01:59;24.90;73.60
4755;DHT22;2391;47.212;7.542;2023-05-27T11:04:25;24.90;74.20
4755;DHT22;2391;47.212;7.542;2023-05-27T11:07:02;24.80;73.20
4755;DHT22;2391;47.212;7.542;2023-05-27T11:09:25;24.80;72.60
4755;DHT22;2391;47.212;7.542;2023-05-27T11:11:52;24.80;73.20
4755;DHT22;2391;47.212;7.542;2023-05-27T11:14:17;24.80;73.40
4755;DHT22;2391;47.212;7.542;2023-05-27T11:16:49;24.80;71.70
4755;DHT22;2391;47.212;7.542;2023-05-27T11:19:18;24.80;71.90
4755;DHT22;2391;47.212;7.542;2023-05-27T11:21:45;24.80;71.80
4755;DHT22;2391;47.212;7.542;2023-05-27T11:24:18;24.80;72.70
4755;DHT22;2391;47.212;7.542;2023-05-27T11:26:46;24.80;71.10
4755;DHT22;2391;47.212;7.542;2023-05-27T11:29:14;24.80;72.20
4755;DHT22;2391;47.212;7.542;2023-05-27T11:31:40;24.80;72.50
4755;DHT22;2391;47.212;7.542;2023-05-27T11:34:13;24.90;72.10
4755;DHT22;2391;47.212;7.542;2023-05-27T11:36:40;24.90;72.20
4755;DHT22;2391;47.212;7.542;2023-05-27T11:39:10;24.80;72.10
4755;DHT22;2391;47.212;7.542;2023-05-27T11:41:35;24.90;72.20
4755;DHT22;2391;47.212;7.542;2023-05-27T11:46:41;25.00;72.50
4755;DHT22;2391;47.212;7.542;2023-05-27T11:49:10;25.00;73.20
4755;DHT22;2391;47.212;7.542;2023-05-27T11:51:40;25.10;72.50
4755;DHT22;2391;47.212;7.542;2023-05-27T11:54:06;25.10;72.00
4755;DHT22;2391;47.212;7.542;2023-05-27T11:56:32;25.20;73.00
4755;DHT22;2391;47.212;7.542;2023-05-27T11:58:58;25.30;71.90
4755;DHT22;2391;47.212;7.542;2023-05-27T12:01:24;25.40;71.70
4755;DHT22;2391;47.212;7.542;2023-05-27T12:03:51;25.40;71.70
4755;DHT22;2391;47.212;7.542;2023-05-27T12:06:16;25.40;71.60
4755;DHT22;2391;47.212;7.542;2023-05-27T12:08:42;25.30;71.30
4755;DHT22;2391;47.212;7.542;2023-05-27T12:11:08;25.30;70.90
4755;DHT22;2391;47.212;7.542;2023-05-27T12:13:35;25.30;70.60
4755;DHT22;2391;47.212;7.542;2023-05-27T12:16:01;25.40;70.90
4755;DHT22;2391;47.212;7.542;2023-05-27T12:18:28;25.40;70.70
4755;DHT22;2391;47.212;7.542;2023-05-27T12:20:55;25.40;71.70
4755;DHT22;2391;47.212;7.542;2023-05-27T12:23:21;25.40;70.40
4755;DHT22;2391;47.212;7.542;2023-05-27T12:25:47;25.50;70.40
4755;DHT22;2391;47.212;7.542;2023-05-27T12:28:13;25.40;70.70
4755;DHT22;2391;47.212;7.542;2023-05-27T12:30:39;25.50;70.00
4755;DHT22;2391;47.212;7.542;2023-05-27T12:33:05;25.40;70.00
4755;DHT22;2391;47.212;7.542;2023-05-27T12:35:32;25.50;72.40
4755;DHT22;2391;47.212;7.542;2023-05-27T12:37:59;25.50;70.80
4755;DHT22;2391;47.212;7.542;2023-05-27T12:40:26;25.60;69.70
4755;DHT22;2391;47.212;7.542;2023-05-27T12:42:52;25.60;69.50
4755;DHT22;2391;47.212;7.542;2023-05-27T12:45:18;25.60;70.10
4755;DHT22;2391;47.212;7.542;2023-05-27T12:47:46;25.70;70.00
4755;DHT22;2391;47.212;7.542;2023-05-27T12:50:11;25.70;69.20
4755;DHT22;2391;47.212;7.542;2023-05-27T12:52:37;25.70;69.20
4755;DHT22;2391;47.212;7.542;2023-05-27T12:55:04;25.80;69.30
4755;DHT22;2391;47.212;7.542;2023-05-27T12:57:30;25.70;69.90
4755;DHT22;2391;47.212;7.542;2023-05-27T12:59:56;25.80;70.60
4755;DHT22;2391;47.212;7.542;2023-05-27T13:02:21;25.80;69.30
4755;DHT22;2391;47.212;7.542;2023-05-27T13:04:47;25.80;69.40
4755;DHT22;2391;47.212;7.542;2023-05-27T13:07:13;25.80;69.40
4755;DHT22;2391;47.212;7.542;2023-05-27T13:09:42;25.90;68.00
4755;DHT22;2391;47.212;7.542;2023-05-27T13:12:08;25.90;67.60
4755;DHT22;2391;47.212;7.542;2023-05-27T13:14:33;25.90;66.70
4755;DHT22;2391;47.212;7.542;2023-05-27T13:16:59;25.90;67.80
4755;DHT22;2391;47.212;7.542;2023-05-27T13:19:26;25.90;67.10
4755;DHT22;2391;47.212;7.542;2023-05-27T13:21:51;25.90;66.50
4755;DHT22;2391;47.212;7.542;2023-05-27T13:24:18;25.90;65.60
4755;DHT22;2391;47.212;7.542;2023-05-27T13:26:43;25.90;67.10
4755;DHT22;2391;47.212;7.542;2023-05-27T13:29:09;25.80;66.70
4755;DHT22;2391;47.212;7.542;2023-05-27T13:31:35;25.90;66.80
4755;DHT22;2391;47.212;7.542;2023-05-27T13:34:00;25.90;66.20
4755;DHT22;2391;47.212;7.542;2023-05-27T13:36:26;25.90;65.40
4755;DHT22;2391;47.212;7.542;2023-05-27T13:38:52;26.00;65.40
4755;DHT22;2391;47.212;7.542;2023-05-27T13:41:18;26.10;67.20
4755;DHT22;2391;47.212;7.542;2023-05-27T13:43:43;26.10;66.40
4755;DHT22;2391;47.212;7.542;2023-05-27T13:46:09;26.20;65.80
4755;DHT22;2391;47.212;7.542;2023-05-27T13:48:35;26.20;66.00
4755;DHT22;2391;47.212;7.542;2023-05-27T13:51:00;26.20;65.60
4755;DHT22;2391;47.212;7.542;2023-05-27T13:53:27;26.20;65.70
4755;DHT22;2391;47.212;7.542;2023-05-27T13:55:53;26.20;65.00
4755;DHT22;2391;47.212;7.542;2023-05-27T13:58:18;26.30;64.60
4755;DHT22;2391;47.212;7.542;2023-05-27T14:00:44;26.30;64.80
4755;DHT22;2391;47.212;7.542;2023-05-27T14:03:10;26.30;65.20
4755;DHT22;2391;47.212;7.542;2023-05-27T14:05:36;26.30;64.40
4755;DHT22;2391;47.212;7.542;2023-05-27T14:08:05;26.30;65.20
4755;DHT22;2391;47.212;7.542;2023-05-27T14:10:33;26.40;64.90
4755;DHT22;2391;47.212;7.542;2023-05-27T14:13:00;26.40;64.50
4755;DHT22;2391;47.212;7.542;2023-05-27T14:15:26;26.40;64.50
4755;DHT22;2391;47.212;7.542;2023-05-27T14:17:54;26.50;65.00
4755;DHT22;2391;47.212;7.542;2023-05-27T14:20:21;26.40;65.40
4755;DHT22;2391;47.212;7.542;2023-05-27T14:22:47;26.40;65.10
4755;DHT22;2391;47.212;7.542;2023-05-27T14:25:13;26.40;63.80
4755;DHT22;2391;47.212;7.542;2023-05-27T14:27:42;26.40;64.20
4755;DHT22;2391;47.212;7.542;2023-05-27T14:30:08;26.40;65.00
4755;DHT22;2391;47.212;7.542;2023-05-27T14:32:34;26.50;64.20
4755;DHT22;2391;47.212;7.542;2023-05-27T14:35:00;26.40;64.70
4755;DHT22;2391;47.212;7.542;2023-05-27T14:37:25;26.40;64.40
4755;DHT22;2391;47.212;7.542;2023-05-27T14:39:51;26.40;64.50
4755;DHT22;2391;47.212;7.542;2023-05-27T14:42:19;26.30;65.10
4755;DHT22;2391;47.212;7.542;2023-05-27T14:44:45;26.30;64.00
4755;DHT22;2391;47.212;7.542;2023-05-27T14:47:11;26.30;64.90
4755;DHT22;2391;47.212;7.542;2023-05-27T14:49:37;26.20;65.60
4755;DHT22;2391;47.212;7.542;2023-05-27T14:52:03;26.20;65.80
4755;DHT22;2391;47.212;7.542;2023-05-27T14:54:29;26.20;66.20
4755;DHT22;2391;47.212;7.542;2023-05-27T14:56:55;26.30;66.20
4755;DHT22;2391;47.212;7.542;2023-05-27T14:59:20;26.30;64.90
4755;DHT22;2391;47.212;7.542;2023-05-27T15:01:48;26.40;65.30
4755;DHT22;2391;47.212;7.542;2023-05-27T15:04:14;26.40;65.00
4755;DHT22;2391;47.212;7.542;2023-05-27T15:06:39;26.50;64.70
4755;DHT22;2391;47.212;7.542;2023-05-27T15:09:05;26.50;63.80
4755;DHT22;2391;47.212;7.542;2023-05-27T15:11:33;26.50;63.50
4755;DHT22;2391;47.212;7.542;2023-05-27T15:13:58;26.50;64.50
4755;DHT22;2391;47.212;7.542;2023-05-27T15:16:25;26.50;65.30
4755;DHT22;2391;47.212;7.542;2023-05-27T15:18:51;26.50;65.30
4755;DHT22;2391;47.212;7.542;2023-05-27T15:21:16;26.50;65.00
4755;DHT22;2391;47.212;7.542;2023-05-27T15:23:42;26.60;65.60
4755;DHT22;2391;47.212;7.542;2023-05-27T15:26:09;26.70;65.10
4755;DHT22;2391;47.212;7.542;2023-05-27T15:28:34;26.70;64.90
4755;DHT22;2391;47.212;7.542;2023-05-27T15:31:00;26.70;64.50
4755;DHT22;2391;47.212;7.542;2023-05-27T15:33:26;26.80;63.90
4755;DHT22;2391;47.212;7.542;2023-05-27T15:35:52;26.70;64.80
4755;DHT22;2391;47.212;7.542;2023-05-27T15:38:17;26.70;65.60
4755;DHT22;2391;47.212;7.542;2023-05-27T15:40:43;26.70;65.10
4755;DHT22;2391;47.212;7.542;2023-05-27T15:43:10;26.60;64.40
4755;DHT22;2391;47.212;7.542;2023-05-27T15:45:37;26.50;65.20
4755;DHT22;2391;47.212;7.542;2023-05-27T15:48:08;26.60;65.30
4755;DHT22;2391;47.212;7.542;2023-05-27T15:50:37;26.60;65.10
4755;DHT22;2391;47.212;7.542;2023-05-27T15:53:06;26.60;65.50
4755;DHT22;2391;47.212;7.542;2023-05-27T15:55:31;26.70;65.70
4755;DHT22;2391;47.212;7.542;2023-05-27T15:57:57;26.70;65.70
4755;DHT22;2391;47.212;7.542;2023-05-27T16:00:23;26.60;64.90
4755;DHT22;2391;47.212;7.542;2023-05-27T16:02:49;26.50;65.50
4755;DHT22;2391;47.212;7.542;2023-05-27T16:05:15;26.40;65.10